Time;durP1;ratioP1;P1;durP2;ratioP2;P2;SDS_P1;SDS_P2;PMS_P1;PMS_P2;Temp;Humidity;BMP_temperature;BMP_pressure;BME280_temperature;BME280_humidity;BME280_pressure;Samples;Min_cycle;Max_cycle;Signal;HPM_P1;HPM_P2
2023/05/19 00:01:27;;;;;;;9.45;4.70;;;11.20;95.10;;;;;;6240425;23;20032;-72
2023/05/19 00:03:56;;;;;;;11.80;5.90;;;11.20;95.30;;;;;;6240395;23;20070;-72
2023/05/19 00:06:28;;;;;;;9.57;4.93;;;11.10;95.60;;;;;;6240426;23;20032;-72
2023/05/19 00:08:58;;;;;;;9.20;5.13;;;11.10;95.80;;;;;;6241167;23;20076;-72
2023/05/19 00:11:25;;;;;;;8.40;5.07;;;11.10;96.20;;;;;;6240321;23;20000;-72
2023/05/19 00:13:57;;;;;;;8.20;5.25;;;11.10;95.90;;;;;;6242418;23;20012;-72
2023/05/19 00:16:24;;;;;;;9.68;5.18;;;11.10;96.10;;;;;;6242550;23;20393;-72
2023/05/19 00:18:50;;;;;;;8.57;4.60;;;11.10;96.20;;;;;;6241994;23;20000;-72
2023/05/19 00:21:16;;;;;;;8.98;4.97;;;11.10;96.40;;;;;;6242765;23;20000;-72
2023/05/19 00:23:42;;;;;;;10.25;5.45;;;11.00;96.50;;;;;;6242738;23;20038;-71
2023/05/19 00:26:08;;;;;;;9.63;4.85;;;11.00;96.70;;;;;;6242285;23;20083;-71
2023/05/19 00:28:33;;;;;;;11.18;6.55;;;11.00;96.80;;;;;;6242062;23;20311;-71
2023/05/19 00:31:00;;;;;;;8.88;4.72;;;11.00;97.10;;;;;;6242237;23;20010;-72
2023/05/19 00:33:26;;;;;;;9.10;5.40;;;10.90;97.20;;;;;;6240268;23;20024;-72
2023/05/19 00:35:52;;;;;;;12.20;5.10;;;10.90;97.30;;;;;;6242453;23;20352;-72
2023/05/19 00:38:17;;;;;;;10.23;5.50;;;10.90;97.80;;;;;;6241065;23;20012;-72
2023/05/19 00:40:44;;;;;;;8.27;5.60;;;10.90;97.70;;;;;;6242799;23;20008;-72
2023/05/19 00:43:09;;;;;;;12.73;5.07;;;10.80;97.90;;;;;;6215928;23;20008;-72
2023/05/19 00:45:35;;;;;;;8.93;5.32;;;10.80;98.10;;;;;;6241724;23;20326;-72
2023/05/19 00:48:00;;;;;;;10.07;5.00;;;10.80;98.20;;;;;;6242712;23;19996;-72
2023/05/19 00:50:27;;;;;;;7.93;5.22;;;10.70;98.30;;;;;;6242192;23;20007;-72
2023/05/19 00:52:53;;;;;;;7.65;5.35;;;10.70;98.50;;;;;;6242492;23;20433;-71
2023/05/19 00:55:23;;;;;;;7.38;4.93;;;10.70;98.60;;;;;;6215190;23;20032;-71
2023/05/19 00:57:49;;;;;;;8.82;5.20;;;10.60;98.80;;;;;;6242464;23;20026;-71
2023/05/19 01:00:15;;;;;;;10.45;4.90;;;10.60;98.90;;;;;;6242023;23;20413;-72
2023/05/19 01:02:42;;;;;;;11.05;5.13;;;10.60;99.00;;;;;;6242423;23;20000;-72
2023/05/19 01:05:08;;;;;;;9.80;5.65;;;10.60;99.20;;;;;;6242461;23;20365;-72
2023/05/19 01:07:35;;;;;;;14.38;6.28;;;10.60;99.40;;;;;;6242277;23;20315;-72
2023/05/19 01:10:01;;;;;;;12.20;6.13;;;10.50;99.60;;;;;;6242629;23;20318;-71
2023/05/19 01:12:27;;;;;;;7.25;4.85;;;10.50;99.80;;;;;;6241710;23;19996;-71
2023/05/19 01:14:53;;;;;;;9.85;6.13;;;10.50;99.90;;;;;;6242253;23;20363;-71
2023/05/19 01:17:43;;;;;;;7.90;5.57;;;10.40;99.90;;;;;;6242107;23;20011;-72
2023/05/19 01:20:21;;;;;;;14.52;5.90;;;10.50;99.90;;;;;;6242557;23;20000;-72
2023/05/19 01:22:47;;;;;;;13.55;6.05;;;10.40;99.90;;;;;;6242504;23;20046;-72
2023/05/19 01:25:54;;;;;;;10.88;6.13;;;10.40;99.90;;;;;;6241773;23;20000;-71
2023/05/19 01:28:44;;;;;;;12.88;6.45;;;10.40;99.90;;;;;;6241133;23;20042;-71
2023/05/19 01:31:11;;;;;;;10.77;6.13;;;10.40;99.90;;;;;;6241765;23;20319;-71
2023/05/19 01:33:38;;;;;;;9.43;5.20;;;10.30;99.90;;;;;;6215296;23;20407;-71
2023/05/19 01:36:06;;;;;;;13.35;6.30;;;10.30;99.90;;;;;;6242283;23;20096;-72
2023/05/19 01:38:33;;;;;;;8.35;6.20;;;10.30;99.90;;;;;;6241824;23;19997;-72
2023/05/19 01:41:00;;;;;;;12.32;6.93;;;10.30;99.90;;;;;;6242461;23;20394;-71
2023/05/19 01:43:26;;;;;;;10.98;6.03;;;10.30;99.90;;;;;;6241258;23;20027;-71
2023/05/19 01:45:53;;;;;;;9.68;5.72;;;10.30;99.90;;;;;;6214973;23;20366;-71
2023/05/19 01:48:19;;;;;;;10.93;5.70;;;10.30;99.90;;;;;;6214811;23;20082;-71
2023/05/19 01:50:45;;;;;;;9.82;6.07;;;10.30;99.90;;;;;;6241899;23;20008;-71
2023/05/19 01:53:11;;;;;;;12.48;6.43;;;10.30;99.90;;;;;;6241782;23;20381;-72
2023/05/19 01:55:44;;;;;;;10.77;6.25;;;10.20;99.90;;;;;;6241924;23;20063;-71
2023/05/19 01:58:44;;;;;;;11.23;6.05;;;10.20;99.90;;;;;;6241324;23;20011;-71
2023/05/19 02:01:36;;;;;;;10.80;5.82;;;10.20;99.90;;;;;;6241883;23;20023;-72
2023/05/19 02:04:12;;;;;;;11.30;6.05;;;10.20;99.90;;;;;;6241927;23;20004;-71
2023/05/19 02:06:53;;;;;;;11.52;5.95;;;10.10;99.90;;;;;;6241694;23;20012;-71
2023/05/19 02:09:50;;;;;;;15.82;7.70;;;10.10;99.90;;;;;;6241739;23;20054;-72
2023/05/19 02:12:27;;;;;;;10.40;5.25;;;10.10;99.90;;;;;;6213670;23;20325;-72
2023/05/19 02:15:14;;;;;;;11.18;6.95;;;10.00;99.90;;;;;;6239210;23;20035;-71
2023/05/19 02:17:43;;;;;;;13.90;7.18;;;10.00;99.90;;;;;;6213470;23;20008;-72
2023/05/19 02:20:09;;;;;;;13.68;7.35;;;10.00;99.90;;;;;;6241358;23;20019;-71
2023/05/19 02:22:35;;;;;;;10.27;7.30;;;10.00;99.90;;;;;;6241545;23;20008;-72
2023/05/19 02:25:01;;;;;;;12.85;6.95;;;9.90;99.90;;;;;;6241048;23;20028;-72
2023/05/19 02:27:27;;;;;;;12.43;6.07;;;9.90;99.90;;;;;;6240409;23;20383;-72
2023/05/19 02:29:52;;;;;;;8.73;6.35;;;9.90;99.90;;;;;;6214659;23;20004;-72
2023/05/19 02:32:19;;;;;;;17.27;8.27;;;9.80;99.90;;;;;;6241291;23;20057;-72
2023/05/19 02:34:44;;;;;;;15.57;7.82;;;9.80;99.90;;;;;;6241430;23;20031;-72
2023/05/19 02:37:14;;;;;;;10.68;6.88;;;9.80;99.90;;;;;;6240934;23;20008;-71
2023/05/19 02:39:40;;;;;;;14.70;6.35;;;9.80;99.90;;;;;;6214198;23;20437;-72
2023/05/19 02:42:06;;;;;;;11.38;6.68;;;9.70;99.90;;;;;;6214129;23;20040;-72
2023/05/19 02:44:31;;;;;;;15.07;7.32;;;9.70;99.90;;;;;;6241081;23;20483;-72
2023/05/19 02:46:57;;;;;;;14.13;7.38;;;9.70;99.90;;;;;;6241684;23;20011;-72
2023/05/19 02:49:22;;;;;;;14.55;7.47;;;9.70;99.90;;;;;;6240858;23;20000;-71
2023/05/19 02:51:48;;;;;;;15.55;7.70;;;9.60;99.90;;;;;;6241628;23;20058;-72
2023/05/19 02:54:14;;;;;;;9.70;7.93;;;9.60;99.90;;;;;;6241356;23;20027;-72
2023/05/19 02:56:39;;;;;;;15.10;7.75;;;9.60;99.90;;;;;;6240669;23;20000;-72
2023/05/19 02:59:05;;;;;;;13.63;8.50;;;9.60;99.90;;;;;;6241367;23;20000;-71
2023/05/19 03:01:33;;;;;;;16.80;8.38;;;9.50;99.90;;;;;;6213988;23;20014;-71
2023/05/19 03:03:59;;;;;;;15.40;7.70;;;9.50;99.90;;;;;;6241067;23;20054;-71
2023/05/19 03:06:24;;;;;;;12.18;8.00;;;9.50;99.90;;;;;;6240725;23;20000;-72
2023/05/19 03:08:50;;;;;;;13.13;7.35;;;9.50;99.90;;;;;;6241385;23;20422;-71
2023/05/19 03:11:16;;;;;;;15.98;8.75;;;9.40;99.90;;;;;;6240752;23;20486;-71
2023/05/19 03:13:41;;;;;;;13.95;8.25;;;9.40;99.90;;;;;;6241115;23;20030;-72
2023/05/19 03:16:07;;;;;;;12.00;7.50;;;9.40;99.90;;;;;;6214458;23;20445;-71
2023/05/19 03:18:33;;;;;;;15.00;7.68;;;9.40;99.90;;;;;;6240745;23;20409;-71
2023/05/19 03:20:59;;;;;;;17.05;8.05;;;9.40;99.90;;;;;;6241404;23;20050;-71
2023/05/19 03:23:25;;;;;;;15.10;8.30;;;9.30;99.90;;;;;;6240385;23;19996;-71
2023/05/19 03:25:52;;;;;;;15.88;9.98;;;9.30;99.90;;;;;;6240507;23;20075;-72
2023/05/19 03:28:18;;;;;;;10.37;7.90;;;9.30;99.90;;;;;;6213607;23;20028;-72
2023/05/19 03:30:44;;;;;;;14.18;8.52;;;9.30;99.90;;;;;;6240961;23;20406;-71
2023/05/19 03:33:10;;;;;;;12.13;8.98;;;9.30;99.90;;;;;;6214171;23;20507;-71
2023/05/19 03:35:35;;;;;;;15.73;8.45;;;9.30;99.90;;;;;;6240396;23;20058;-71
2023/05/19 03:38:01;;;;;;;14.15;7.68;;;9.30;99.90;;;;;;6241201;23;20014;-71
2023/05/19 03:40:26;;;;;;;13.18;8.98;;;9.30;99.90;;;;;;6240247;23;20001;-71
2023/05/19 03:42:53;;;;;;;13.57;9.03;;;9.30;99.90;;;;;;6240991;23;20000;-72
2023/05/19 03:45:18;;;;;;;15.43;9.35;;;9.30;99.90;;;;;;6241132;23;20338;-73
2023/05/19 03:47:46;;;;;;;17.15;9.27;;;9.30;99.90;;;;;;6240048;23;20011;-72
2023/05/19 03:50:12;;;;;;;13.40;9.50;;;9.30;99.90;;;;;;6240839;23;20007;-71
2023/05/19 03:52:38;;;;;;;13.25;9.38;;;9.30;99.90;;;;;;6240793;23;20280;-71
2023/05/19 03:55:04;;;;;;;15.17;8.37;;;9.30;99.90;;;;;;6240252;23;20031;-72
2023/05/19 03:57:30;;;;;;;17.65;9.98;;;9.20;99.90;;;;;;6240180;23;20000;-72
2023/05/19 03:59:56;;;;;;;19.30;10.02;;;9.30;99.90;;;;;;6241257;23;20092;-72
2023/05/19 04:02:21;;;;;;;17.02;9.07;;;9.30;99.90;;;;;;6240345;23;20034;-71
2023/05/19 04:04:47;;;;;;;12.25;9.90;;;9.20;99.90;;;;;;6241083;23;20046;-72
2023/05/19 04:07:12;;;;;;;14.95;10.10;;;9.30;99.90;;;;;;6240372;23;20030;-72
2023/05/19 04:09:38;;;;;;;17.38;9.23;;;9.30;99.90;;;;;;6240368;23;20000;-71
2023/05/19 04:12:03;;;;;;;12.48;8.02;;;9.30;99.90;;;;;;6240923;23;20007;-72
2023/05/19 04:14:29;;;;;;;14.65;9.48;;;9.20;99.90;;;;;;6240323;23;20015;-72
2023/05/19 04:16:55;;;;;;;14.15;9.18;;;9.30;99.90;;;;;;6240838;23;20075;-72
2023/05/19 04:19:21;;;;;;;13.25;8.60;;;9.30;99.90;;;;;;6240494;23;20076;-72
2023/05/19 04:21:47;;;;;;;17.25;9.05;;;9.30;99.90;;;;;;6240704;23;20378;-71
2023/05/19 04:24:12;;;;;;;18.10;8.88;;;9.30;99.90;;;;;;6240029;23;20000;-71
2023/05/19 04:26:41;;;;;;;13.05;9.23;;;9.30;99.90;;;;;;6240108;23;20016;-72
2023/05/19 04:29:07;;;;;;;13.98;10.73;;;9.30;99.90;;;;;;6241059;23;20004;-71
2023/05/19 04:31:34;;;;;;;16.33;9.23;;;9.40;99.90;;;;;;6239998;23;20298;-72
2023/05/19 04:34:00;;;;;;;11.20;9.30;;;9.40;99.90;;;;;;6240675;23;20329;-72
2023/05/19 04:36:26;;;;;;;13.23;9.13;;;9.40;99.90;;;;;;6240226;23;20441;-72
2023/05/19 04:38:53;;;;;;;18.27;10.80;;;9.40;99.90;;;;;;6240294;23;19996;-71
2023/05/19 04:41:19;;;;;;;12.90;8.15;;;9.40;99.90;;;;;;6240457;23;20075;-71
2023/05/19 04:43:47;;;;;;;12.07;9.10;;;9.50;99.90;;;;;;6240701;23;20012;-71
2023/05/19 04:46:13;;;;;;;11.50;8.30;;;9.50;99.90;;;;;;6240376;23;20000;-71
2023/05/19 04:48:41;;;;;;;14.95;9.18;;;9.50;99.90;;;;;;6213458;23;20095;-71
2023/05/19 04:51:07;;;;;;;14.88;8.82;;;9.50;99.90;;;;;;6240767;23;20007;-72
2023/05/19 04:53:32;;;;;;;13.18;8.65;;;9.50;99.90;;;;;;6239630;23;20020;-71
2023/05/19 04:55:59;;;;;;;15.45;8.88;;;9.60;99.90;;;;;;6240680;23;20011;-71
2023/05/19 04:58:26;;;;;;;13.27;8.00;;;9.70;99.90;;;;;;6240243;23;20004;-71
2023/05/19 05:00:54;;;;;;;14.40;8.77;;;9.70;99.90;;;;;;6242734;23;20000;-71
2023/05/19 05:03:21;;;;;;;15.82;9.20;;;9.70;99.90;;;;;;6242253;23;20023;-71
2023/05/19 05:05:47;;;;;;;13.27;7.78;;;9.80;99.90;;;;;;6242331;23;20134;-71
2023/05/19 05:08:14;;;;;;;12.80;7.13;;;9.80;99.90;;;;;;6241792;23;20046;-71
2023/05/19 05:10:40;;;;;;;17.35;8.00;;;9.90;99.90;;;;;;6242387;23;19996;-71
2023/05/19 05:13:06;;;;;;;14.35;8.43;;;9.90;99.90;;;;;;6215345;23;20004;-71
2023/05/19 05:15:32;;;;;;;12.73;8.63;;;10.00;99.90;;;;;;6242055;23;20005;-71
2023/05/19 05:17:58;;;;;;;15.90;9.93;;;10.00;99.90;;;;;;6242331;23;20032;-71
2023/05/19 05:20:24;;;;;;;14.30;8.60;;;10.10;99.90;;;;;;6241691;23;20374;-72
2023/05/19 05:22:50;;;;;;;12.90;9.55;;;10.10;99.90;;;;;;6242103;23;20004;-71
2023/05/19 05:25:16;;;;;;;14.40;7.05;;;10.20;99.90;;;;;;6241832;23;20668;-72
2023/05/19 05:27:42;;;;;;;10.85;7.13;;;10.20;99.90;;;;;;6242132;23;20015;-71
2023/05/19 05:30:07;;;;;;;13.80;7.65;;;10.30;99.90;;;;;;6242284;23;20067;-72
2023/05/19 05:32:33;;;;;;;14.05;8.48;;;10.40;99.90;;;;;;6214955;23;20019;-71
2023/05/19 05:34:58;;;;;;;15.10;7.72;;;10.40;99.90;;;;;;6242206;23;20032;-72
2023/05/19 05:37:24;;;;;;;15.68;8.90;;;10.50;99.90;;;;;;6241266;23;20004;-72
2023/05/19 05:39:50;;;;;;;11.45;8.13;;;10.50;99.90;;;;;;6215481;23;20027;-72
2023/05/19 05:42:15;;;;;;;8.75;6.85;;;10.60;99.90;;;;;;6242122;23;20051;-72
2023/05/19 05:44:41;;;;;;;11.18;6.55;;;10.70;99.90;;;;;;6241785;23;20008;-72
2023/05/19 05:47:07;;;;;;;9.30;6.60;;;10.70;99.90;;;;;;6242014;23;20005;-72
2023/05/19 05:49:36;;;;;;;12.02;7.00;;;10.80;99.90;;;;;;6240848;23;20661;-72
2023/05/19 05:52:03;;;;;;;14.82;7.00;;;10.90;99.90;;;;;;6241155;23;20329;-71
2023/05/19 05:54:29;;;;;;;10.57;6.28;;;11.00;99.90;;;;;;6241698;23;20086;-72
2023/05/19 05:56:55;;;;;;;10.77;7.10;;;11.00;99.90;;;;;;6242427;23;20085;-72
2023/05/19 05:59:21;;;;;;;9.98;6.75;;;11.10;99.90;;;;;;6241629;23;20004;-72
2023/05/19 06:01:46;;;;;;;10.73;6.03;;;11.20;99.90;;;;;;6242096;23;20004;-72
2023/05/19 06:04:12;;;;;;;12.35;6.35;;;11.20;99.90;;;;;;6241604;23;20035;-71
2023/05/19 06:06:38;;;;;;;10.73;6.22;;;11.30;99.90;;;;;;6241222;23;20062;-72
2023/05/19 06:09:04;;;;;;;10.90;7.25;;;11.40;99.90;;;;;;6242168;23;20075;-72
2023/05/19 06:11:29;;;;;;;13.30;6.03;;;11.50;99.90;;;;;;6241687;23;19996;-72
2023/05/19 06:13:55;;;;;;;10.00;5.90;;;11.50;99.90;;;;;;6241775;23;20007;-72
2023/05/19 06:16:21;;;;;;;9.73;5.40;;;11.60;99.90;;;;;;6241146;23;20007;-72
2023/05/19 06:18:46;;;;;;;11.23;5.30;;;11.80;99.90;;;;;;6240839;23;19996;-71
2023/05/19 06:21:12;;;;;;;12.80;5.45;;;11.80;99.90;;;;;;6240471;23;19996;-72
2023/05/19 06:23:39;;;;;;;9.65;5.60;;;11.90;99.90;;;;;;6214500;23;20050;-72
2023/05/19 06:26:04;;;;;;;8.73;5.28;;;12.00;99.90;;;;;;6241597;23;20027;-72
2023/05/19 06:28:30;;;;;;;10.13;4.60;;;12.10;99.90;;;;;;6241213;23;20120;-72
2023/05/19 06:30:56;;;;;;;11.88;5.38;;;12.10;99.90;;;;;;6241669;23;20000;-72
2023/05/19 06:33:21;;;;;;;10.07;5.95;;;12.20;99.90;;;;;;6241246;23;20007;-72
2023/05/19 06:35:47;;;;;;;12.13;5.97;;;12.30;99.90;;;;;;6241176;23;20000;-72
2023/05/19 06:38:12;;;;;;;9.60;4.35;;;12.40;99.90;;;;;;6241638;23;20019;-70
2023/05/19 06:40:38;;;;;;;6.25;3.63;;;12.50;99.90;;;;;;6241542;23;20007;-70
2023/05/19 06:43:04;;;;;;;10.18;4.20;;;12.50;99.90;;;;;;6241471;23;20472;-70
2023/05/19 06:45:29;;;;;;;8.88;3.25;;;12.60;99.90;;;;;;6241381;23;20079;-71
2023/05/19 06:47:57;;;;;;;5.85;3.55;;;12.70;99.90;;;;;;6241679;23;20003;-70
2023/05/19 06:50:22;;;;;;;9.65;3.80;;;12.70;99.90;;;;;;6240045;23;20004;-70
2023/05/19 06:52:49;;;;;;;11.40;4.32;;;12.80;99.90;;;;;;6241540;23;20004;-70
2023/05/19 06:55:15;;;;;;;9.63;4.18;;;12.80;99.90;;;;;;6241335;23;20066;-70
2023/05/19 06:57:41;;;;;;;11.82;4.47;;;12.90;99.50;;;;;;6241178;23;20426;-70
2023/05/19 07:00:10;;;;;;;10.73;4.45;;;12.90;99.20;;;;;;6241479;23;20004;-70
2023/05/19 07:02:35;;;;;;;8.82;4.00;;;13.00;98.90;;;;;;6240428;23;20007;-70
2023/05/19 07:05:01;;;;;;;7.95;3.60;;;13.10;98.90;;;;;;6241574;23;19997;-70
2023/05/19 07:07:27;;;;;;;6.80;3.03;;;13.20;98.50;;;;;;6240463;23;20001;-70
2023/05/19 07:09:53;;;;;;;8.18;4.55;;;13.30;98.20;;;;;;6214596;23;20007;-71
2023/05/19 07:12:18;;;;;;;12.55;3.92;;;13.40;97.90;;;;;;6213951;23;20400;-71
2023/05/19 07:14:44;;;;;;;7.85;3.70;;;13.50;97.70;;;;;;6240947;23;20426;-70
2023/05/19 07:17:09;;;;;;;8.52;3.50;;;13.50;97.20;;;;;;6240539;23;20414;-70
2023/05/19 07:19:35;;;;;;;9.20;3.78;;;13.60;97.10;;;;;;6240585;23;20000;-70
2023/05/19 07:22:01;;;;;;;11.52;4.47;;;13.60;96.80;;;;;;6241015;23;20014;-70
2023/05/19 07:24:26;;;;;;;8.77;4.47;;;13.70;96.80;;;;;;6240510;23;20023;-70
2023/05/19 07:26:52;;;;;;;10.32;4.22;;;13.70;96.40;;;;;;6240742;23;20012;-70
2023/05/19 07:29:18;;;;;;;8.48;3.20;;;13.80;96.40;;;;;;6240799;23;20000;-70
2023/05/19 07:31:43;;;;;;;7.65;3.40;;;13.80;96.00;;;;;;6240101;23;20022;-70
2023/05/19 07:34:09;;;;;;;10.23;4.10;;;13.90;95.90;;;;;;6240795;23;20079;-70
2023/05/19 07:36:34;;;;;;;5.82;3.67;;;14.00;95.90;;;;;;6213677;23;20004;-70
2023/05/19 07:39:00;;;;;;;9.93;4.82;;;14.10;95.80;;;;;;6240892;23;20028;-70
2023/05/19 07:41:26;;;;;;;6.03;3.25;;;14.20;95.50;;;;;;6240388;23;20008;-71
2023/05/19 07:43:51;;;;;;;9.35;4.05;;;14.30;95.60;;;;;;6241180;23;20004;-71
2023/05/19 07:46:17;;;;;;;9.80;3.35;;;14.40;95.60;;;;;;6212741;23;20034;-70
2023/05/19 07:48:42;;;;;;;7.63;3.20;;;14.40;95.50;;;;;;6240829;23;20006;-70
2023/05/19 07:51:11;;;;;;;8.63;3.50;;;14.60;95.30;;;;;;6241048;23;20032;-70
2023/05/19 07:53:36;;;;;;;6.18;3.35;;;14.70;95.20;;;;;;6214238;23;19997;-70
2023/05/19 07:56:02;;;;;;;10.05;3.97;;;14.90;95.20;;;;;;6241416;23;20441;-70
2023/05/19 07:58:28;;;;;;;6.15;3.40;;;15.10;94.30;;;;;;6213883;23;20438;-70
2023/05/19 08:00:59;;;;;;;9.23;3.63;;;15.20;93.90;;;;;;6240598;23;20070;-71
2023/05/19 08:03:25;;;;;;;8.13;3.80;;;15.30;93.60;;;;;;6239542;23;20075;-70
2023/05/19 08:05:51;;;;;;;6.75;2.83;;;15.40;92.70;;;;;;6212871;23;20000;-70
2023/05/19 08:08:18;;;;;;;10.90;3.03;;;15.40;92.30;;;;;;6239283;23;20004;-70
2023/05/19 08:10:44;;;;;;;6.38;2.47;;;15.50;92.20;;;;;;6240077;23;20000;-70
2023/05/19 08:13:10;;;;;;;8.75;2.72;;;15.60;92.30;;;;;;6240084;23;20382;-71
2023/05/19 08:15:35;;;;;;;8.45;3.80;;;15.80;91.80;;;;;;6239353;23;20000;-71
2023/05/19 08:18:01;;;;;;;7.82;2.90;;;15.80;91.80;;;;;;6240908;23;20004;-70
2023/05/19 08:20:27;;;;;;;7.60;2.55;;;15.90;92.30;;;;;;6241105;23;20027;-70
2023/05/19 08:22:53;;;;;;;5.53;2.22;;;16.00;91.30;;;;;;6241430;23;20000;-70
2023/05/19 08:25:18;;;;;;;4.80;2.40;;;16.20;91.40;;;;;;6240501;23;20012;-70
2023/05/19 08:27:44;;;;;;;7.35;2.40;;;16.20;91.40;;;;;;6240774;23;20007;-71
2023/05/19 08:30:10;;;;;;;7.22;2.67;;;16.40;90.90;;;;;;6213373;23;20087;-70
2023/05/19 08:32:36;;;;;;;7.18;2.40;;;16.40;90.60;;;;;;6241026;23;20003;-71
2023/05/19 08:35:01;;;;;;;4.72;2.00;;;16.60;90.60;;;;;;6242732;23;20000;-70
2023/05/19 08:37:27;;;;;;;9.88;2.95;;;16.60;90.60;;;;;;6242836;23;20406;-70
2023/05/19 08:39:52;;;;;;;5.50;2.20;;;16.70;89.80;;;;;;6216243;23;20011;-70
2023/05/19 08:42:18;;;;;;;4.55;2.00;;;16.70;88.20;;;;;;6242692;23;20485;-70
2023/05/19 08:44:43;;;;;;;6.30;3.03;;;16.70;87.90;;;;;;6242256;23;20076;-70
2023/05/19 08:47:12;;;;;;;7.80;2.60;;;16.60;86.60;;;;;;6242973;23;20004;-70
2023/05/19 08:49:45;;;;;;;4.78;2.08;;;16.60;86.10;;;;;;6242663;23;20019;-70
2023/05/19 08:52:29;;;;;;;6.05;1.73;;;16.60;85.40;;;;;;6242813;23;20000;-70
2023/05/19 08:55:03;;;;;;;;;;;16.60;85.20;;;;;;6243495;23;20182;-70
2023/05/19 08:57:28;;;;;;;6.45;2.60;;;16.60;85.60;;;;;;6242102;23;19904;-70
2023/05/19 08:59:55;;;;;;;6.13;2.17;;;16.70;86.00;;;;;;6215148;23;20011;-70
2023/05/19 09:02:21;;;;;;;7.82;2.38;;;16.90;86.20;;;;;;6215187;23;20000;-70
2023/05/19 09:04:47;;;;;;;6.82;1.60;;;17.00;85.00;;;;;;6242628;23;20299;-69
2023/05/19 09:07:17;;;;;;;7.32;1.95;;;17.10;84.00;;;;;;6241986;23;20418;-70
2023/05/19 09:09:43;;;;;;;6.95;1.98;;;17.20;82.30;;;;;;6242700;23;20326;-70
2023/05/19 09:12:10;;;;;;;4.78;1.65;;;17.30;80.00;;;;;;6242547;23;20008;-70
2023/05/19 09:14:36;;;;;;;5.90;1.55;;;17.40;77.40;;;;;;6241361;23;19996;-70
2023/05/19 09:17:02;;;;;;;5.45;1.48;;;17.30;75.40;;;;;;6242187;23;20004;-70
2023/05/19 09:19:28;;;;;;;4.40;1.45;;;17.30;75.70;;;;;;6241797;23;20009;-70
2023/05/19 09:21:59;;;;;;;6.22;1.80;;;17.30;76.70;;;;;;6243062;23;20008;-70
2023/05/19 09:24:25;;;;;;;4.65;1.55;;;17.50;77.10;;;;;;6215186;23;20008;-70
2023/05/19 09:26:55;;;;;;;6.45;2.03;;;17.70;76.70;;;;;;6242458;23;20043;-70
2023/05/19 09:29:21;;;;;;;9.20;2.05;;;17.80;76.40;;;;;;6241774;23;20043;-70
2023/05/19 09:31:50;;;;;;;6.40;1.60;;;18.00;75.60;;;;;;6215138;23;20422;-70
2023/05/19 09:34:16;;;;;;;5.57;1.60;;;18.10;73.50;;;;;;6242309;23;20023;-70
2023/05/19 09:36:42;;;;;;;7.22;2.00;;;18.10;72.40;;;;;;6242016;23;20418;-70
2023/05/19 09:39:14;;;;;;;6.70;1.70;;;18.10;72.90;;;;;;6242354;23;20000;-70
2023/05/19 09:41:40;;;;;;;6.28;1.85;;;18.20;70.40;;;;;;6241606;23;20008;-70
2023/05/19 09:44:06;;;;;;;4.00;1.67;;;18.20;70.70;;;;;;6241578;23;20027;-70
2023/05/19 09:46:34;;;;;;;6.22;2.00;;;18.30;71.10;;;;;;6241506;23;20326;-70
2023/05/19 09:49:09;;;;;;;6.40;1.98;;;18.40;71.60;;;;;;6242115;23;20000;-70
2023/05/19 09:51:38;;;;;;;6.50;1.70;;;18.50;71.00;;;;;;6240993;23;20069;-70
2023/05/19 09:54:03;;;;;;;7.30;1.80;;;18.50;70.60;;;;;;6241680;23;20022;-70
2023/05/19 09:56:34;;;;;;;6.60;2.03;;;18.50;69.30;;;;;;6214426;23;20000;-70
2023/05/19 09:59:03;;;;;;;7.15;1.30;;;18.50;69.40;;;;;;6214962;23;20087;-70
2023/05/19 10:01:32;;;;;;;4.47;1.70;;;18.50;68.20;;;;;;6214094;23;20384;-70
2023/05/19 10:03:59;;;;;;;5.63;1.80;;;18.50;67.50;;;;;;6240702;23;20023;-70
2023/05/19 10:06:25;;;;;;;6.13;2.13;;;18.40;67.70;;;;;;6241355;23;20430;-70
2023/05/19 10:08:53;;;;;;;6.75;1.85;;;18.40;68.40;;;;;;6241872;23;20000;-69
2023/05/19 10:11:21;;;;;;;9.20;1.90;;;18.50;68.50;;;;;;6241098;23;20019;-70
2023/05/19 10:13:49;;;;;;;6.65;2.10;;;18.50;69.00;;;;;;6241884;23;20326;-69
2023/05/19 10:16:15;;;;;;;5.65;1.80;;;18.60;69.30;;;;;;6241557;23;20410;-69
2023/05/19 10:18:41;;;;;;;3.13;1.25;;;18.70;69.50;;;;;;6241379;23;20252;-70
2023/05/19 10:21:08;;;;;;;6.03;1.45;;;18.70;69.20;;;;;;6241858;23;20425;-70
2023/05/19 10:23:34;;;;;;;5.40;2.28;;;18.70;69.10;;;;;;6241470;23;20000;-70
2023/05/19 10:26:03;;;;;;;6.25;2.33;;;18.70;68.80;;;;;;6241261;23;20450;-70
2023/05/19 10:28:37;;;;;;;5.35;1.60;;;18.70;68.40;;;;;;6241263;23;20442;-69
2023/05/19 10:31:08;;;;;;;6.85;1.55;;;18.70;69.90;;;;;;6241880;23;20004;-70
2023/05/19 10:33:54;;;;;;;6.85;1.90;;;18.80;69.20;;;;;;6241454;23;20428;-70
2023/05/19 10:36:41;;;;;;;3.92;1.90;;;18.80;68.50;;;;;;6214506;23;20425;-69
2023/05/19 10:39:15;;;;;;;6.07;2.28;;;18.70;68.20;;;;;;6215003;23;20007;-71
2023/05/19 10:41:44;;;;;;;6.88;2.30;;;18.70;69.30;;;;;;6241051;23;20019;-70
2023/05/19 10:44:37;;;;;;;5.53;2.03;;;18.70;69.00;;;;;;6241588;23;20000;-69
2023/05/19 10:47:07;;;;;;;6.70;1.63;;;18.70;68.90;;;;;;6241640;23;20036;-69
2023/05/19 10:49:36;;;;;;;8.88;2.05;;;18.70;68.30;;;;;;6213973;23;20246;-71
2023/05/19 10:52:02;;;;;;;5.70;1.75;;;18.80;68.50;;;;;;6241620;23;20008;-70
2023/05/19 10:54:46;;;;;;;5.50;1.55;;;18.90;69.00;;;;;;6214067;23;20002;-69
2023/05/19 10:57:16;;;;;;;5.95;1.73;;;19.00;68.00;;;;;;6241107;23;20000;-69
2023/05/19 10:59:44;;;;;;;8.32;2.05;;;19.10;67.50;;;;;;6241394;23;20031;-69
2023/05/19 11:02:30;;;;;;;5.72;2.05;;;19.10;67.00;;;;;;6214586;23;20004;-69
2023/05/19 11:05:08;;;;;;;4.03;1.50;;;19.10;66.70;;;;;;6241270;23;20307;-69
2023/05/19 11:07:33;;;;;;;3.63;1.50;;;19.10;67.30;;;;;;6214015;23;20434;-70
2023/05/19 11:10:05;;;;;;;4.70;1.77;;;19.10;66.50;;;;;;6240975;23;20095;-69
2023/05/19 11:12:40;;;;;;;6.10;2.08;;;19.10;66.40;;;;;;6239856;23;19996;-69
2023/05/19 11:15:09;;;;;;;5.80;2.55;;;19.10;66.80;;;;;;6213027;23;20010;-69
2023/05/19 11:17:35;;;;;;;5.40;1.90;;;19.20;66.50;;;;;;6240348;23;20008;-69
2023/05/19 11:20:00;;;;;;;7.05;1.88;;;19.20;65.90;;;;;;6241011;23;20485;-69
2023/05/19 11:22:27;;;;;;;5.22;2.08;;;19.10;66.30;;;;;;6240297;23;20079;-69
2023/05/19 11:24:56;;;;;;;4.10;1.88;;;19.20;66.30;;;;;;6241049;23;20407;-70
2023/05/19 11:27:30;;;;;;;6.97;1.73;;;19.20;66.80;;;;;;6241014;23;20091;-70
2023/05/19 11:30:05;;;;;;;;;;;19.20;66.70;;;;;;6214892;23;20083;-69
2023/05/19 11:32:37;;;;;;;8.90;2.00;;;19.20;66.50;;;;;;6240842;23;20014;-70
2023/05/19 11:35:03;;;;;;;3.85;1.60;;;19.20;66.60;;;;;;6241183;23;20000;-70
2023/05/19 11:37:31;;;;;;;5.07;1.73;;;19.20;66.70;;;;;;6240628;23;20005;-69
2023/05/19 11:40:00;;;;;;;5.68;2.55;;;19.20;65.70;;;;;;6240687;23;20001;-70
2023/05/19 11:42:25;;;;;;;8.07;2.35;;;19.20;66.00;;;;;;6240322;23;20079;-70
2023/05/19 11:44:54;;;;;;;4.82;1.80;;;19.20;65.50;;;;;;6240964;23;20347;-70
2023/05/19 11:47:19;;;;;;;9.50;2.10;;;19.20;65.40;;;;;;6240778;23;20028;-70
2023/05/19 11:49:53;;;;;;;4.28;1.65;;;19.10;66.00;;;;;;6240838;23;20445;-69
2023/05/19 11:52:26;;;;;;;7.82;2.22;;;19.30;65.70;;;;;;6240820;23;20027;-69
2023/05/19 11:54:52;;;;;;;5.32;2.00;;;19.30;65.30;;;;;;6240718;23;19997;-69
2023/05/19 11:57:19;;;;;;;4.95;2.00;;;19.30;64.80;;;;;;6240756;23;20011;-69
2023/05/19 11:59:48;;;;;;;7.82;2.00;;;19.20;64.40;;;;;;6213871;23;20008;-69
2023/05/19 12:02:21;;;;;;;5.82;1.85;;;19.30;64.90;;;;;;6240713;23;20102;-69
2023/05/19 12:04:48;;;;;;;5.35;1.58;;;19.40;65.70;;;;;;6213858;23;20523;-69
2023/05/19 12:07:18;;;;;;;7.60;2.15;;;19.50;65.60;;;;;;6239678;23;20008;-69
2023/05/19 12:09:45;;;;;;;7.13;2.67;;;19.60;65.20;;;;;;6241867;23;20028;-70
2023/05/19 12:12:18;;;;;;;6.50;2.63;;;19.60;64.50;;;;;;6242415;23;19996;-70
2023/05/19 12:14:45;;;;;;;6.53;1.90;;;19.70;64.30;;;;;;6242852;23;20110;-70
2023/05/19 12:17:16;;;;;;;3.78;1.83;;;19.80;64.40;;;;;;6242459;23;20517;-70
2023/05/19 12:19:47;;;;;;;5.47;2.55;;;19.80;63.90;;;;;;6243021;23;20011;-70
2023/05/19 12:22:14;;;;;;;6.65;1.92;;;19.90;63.60;;;;;;6241582;23;20414;-69
2023/05/19 12:24:42;;;;;;;5.47;2.05;;;19.80;64.10;;;;;;6242583;23;20007;-70
2023/05/19 12:27:16;;;;;;;7.20;2.17;;;19.90;64.20;;;;;;6242281;23;20012;-70
2023/05/19 12:29:42;;;;;;;6.35;2.08;;;20.00;63.80;;;;;;6242435;23;20402;-69
2023/05/19 12:32:08;;;;;;;4.82;2.22;;;19.90;63.40;;;;;;6215769;23;20004;-70
2023/05/19 12:34:37;;;;;;;6.00;1.65;;;20.00;63.20;;;;;;6242209;23;20004;-70
2023/05/19 12:37:04;;;;;;;6.38;2.35;;;20.10;63.40;;;;;;6242110;23;20070;-70
2023/05/19 12:39:31;;;;;;;7.13;2.42;;;20.30;63.60;;;;;;6242028;23;20004;-70
2023/05/19 12:42:06;;;;;;;4.38;2.08;;;20.40;62.50;;;;;;6242730;23;20306;-70
2023/05/19 12:44:37;;;;;;;5.13;2.33;;;20.50;62.90;;;;;;6242192;23;20095;-70
2023/05/19 12:47:04;;;;;;;7.32;2.13;;;20.50;61.30;;;;;;6242386;23;20034;-70
2023/05/19 12:49:31;;;;;;;2.97;1.85;;;20.40;61.00;;;;;;6242311;23;20018;-70